Time;durP1;ratioP1;P1;durP2;ratioP2;P2;SDS_P1;SDS_P2;PMS_P1;PMS_P2;Temp;Humidity;BMP_temperature;BMP_pressure;BME280_temperature;BME280_humidity;BME280_pressure;Samples;Min_cycle;Max_cycle;Signal;HPM_P1;HPM_P2
2023/02/21 02:14:06;;;;;;;4.78;2.03;;;;;;;;;;5020265;28;20033;-76
2023/02/21 02:16:43;;;;;;;5.93;2.15;;;;;;;;;;5018316;28;20017;-74
2023/02/21 02:19:08;;;;;;;5.60;2.03;;;;;;;;;;5025765;28;20539;-74
2023/02/21 02:21:44;;;;;;;4.03;2.07;;;;;;;;;;5019964;28;20021;-75
2023/02/21 02:24:19;;;;;;;5.10;2.10;;;;;;;;;;5024886;28;20090;-76
2023/02/21 02:26:53;;;;;;;9.07;2.63;;;;;;;;;;5026904;28;20476;-67
2023/02/21 02:29:39;;;;;;;3.58;1.85;;;;;;;;;;5022913;28;20036;-68
2023/02/21 02:32:18;;;;;;;4.78;2.35;;;;;;;;;;5027222;28;20031;-68
2023/02/21 02:34:43;;;;;;;7.18;2.10;;;;;;;;;;5026733;28;20027;-67
2023/02/21 02:37:13;;;;;;;5.83;2.30;;;;;;;;;;5026983;28;20088;-66
2023/02/21 02:39:40;;;;;;;6.82;2.03;;;;;;;;;;5020984;28;20279;-68
2023/02/21 02:42:18;;;;;;;6.53;1.90;;;;;;;;;;5026455;28;20124;-68
2023/02/21 02:44:49;;;;;;;3.90;1.80;;;;;;;;;;5021469;28;20140;-75
2023/02/21 02:47:18;;;;;;;6.40;2.38;;;;;;;;;;5020488;28;20014;-70
2023/02/21 02:49:44;;;;;;;5.38;2.15;;;;;;;;;;5022948;28;20028;-71
2023/02/21 02:52:09;;;;;;;6.25;1.83;;;;;;;;;;5021906;28;20021;-70
2023/02/21 02:54:34;;;;;;;5.43;1.90;;;;;;;;;;5024858;28;20084;-73
2023/02/21 02:57:09;;;;;;;4.90;1.98;;;;;;;;;;5024295;28;20055;-71
2023/02/21 02:59:35;;;;;;;5.50;1.90;;;;;;;;;;5027671;28;20036;-70
2023/02/21 03:02:06;;;;;;;4.45;2.05;;;;;;;;;;5022251;28;20434;-73
2023/02/21 03:04:49;;;;;;;6.43;1.80;;;;;;;;;;5029300;28;20068;-71
2023/02/21 03:07:30;;;;;;;5.47;2.47;;;;;;;;;;5019654;28;20024;-72
2023/02/21 03:09:55;;;;;;;5.18;2.05;;;;;;;;;;5028021;28;20025;-70
2023/02/21 03:12:29;;;;;;;4.47;2.50;;;;;;;;;;5025775;28;20492;-73
2023/02/21 03:14:57;;;;;;;7.35;1.90;;;;;;;;;;5024174;28;20402;-71
2023/02/21 03:17:23;;;;;;;6.68;2.83;;;;;;;;;;5023293;28;20026;-69
2023/02/21 03:19:51;;;;;;;9.63;1.90;;;;;;;;;;5019532;28;20040;-79
2023/02/21 03:22:18;;;;;;;4.18;1.90;;;;;;;;;;5023348;28;20028;-71
2023/02/21 03:24:45;;;;;;;3.60;1.90;;;;;;;;;;5021627;28;20476;-79
2023/02/21 03:27:11;;;;;;;4.00;1.98;;;;;;;;;;5021101;28;20018;-79
2023/02/21 03:29:37;;;;;;;4.78;1.98;;;;;;;;;;5024008;28;20026;-78
2023/02/21 03:34:40;;;;;;;4.53;2.03;;;;;;;;;;5020568;28;20021;-80
2023/02/21 03:37:06;;;;;;;3.63;1.60;;;;;;;;;;5031212;28;20098;-79
2023/02/21 03:39:31;;;;;;;4.72;2.17;;;;;;;;;;5025747;28;20018;-76
2023/02/21 03:41:56;;;;;;;4.75;2.25;;;;;;;;;;5017041;28;20108;-68
2023/02/21 03:44:22;;;;;;;2.80;1.63;;;;;;;;;;5025697;28;20298;-69
2023/02/21 03:46:47;;;;;;;5.67;2.00;;;;;;;;;;5024470;28;20032;-68
2023/02/21 03:49:12;;;;;;;4.20;2.40;;;;;;;;;;5023917;28;20276;-68
2023/02/21 03:51:37;;;;;;;6.72;2.50;;;;;;;;;;5020249;28;20265;-69
2023/02/21 03:54:02;;;;;;;5.90;2.03;;;;;;;;;;5018739;28;20427;-69
2023/02/21 03:56:28;;;;;;;5.90;2.30;;;;;;;;;;5023680;28;20812;-69
2023/02/21 03:58:53;;;;;;;2.67;1.63;;;;;;;;;;5025302;28;20611;-75
2023/02/21 04:01:18;;;;;;;5.57;2.00;;;;;;;;;;5022461;28;20826;-68
2023/02/21 04:03:43;;;;;;;4.57;1.85;;;;;;;;;;5022881;28;20040;-66
2023/02/21 04:06:09;;;;;;;4.17;1.87;;;;;;;;;;5023491;28;20022;-66
2023/02/21 04:08:34;;;;;;;3.70;1.93;;;;;;;;;;5031424;28;20269;-68
2023/02/21 04:10:59;;;;;;;4.53;2.35;;;;;;;;;;5023932;28;20281;-67
2023/02/21 04:13:24;;;;;;;5.72;2.35;;;;;;;;;;5020601;28;20033;-69
2023/02/21 04:15:50;;;;;;;4.25;2.10;;;;;;;;;;5017430;28;20500;-70
2023/02/21 04:18:15;;;;;;;2.70;1.83;;;;;;;;;;5019566;28;20075;-73
2023/02/21 04:20:40;;;;;;;5.13;1.77;;;;;;;;;;5018863;28;20049;-78
2023/02/21 04:23:05;;;;;;;2.65;1.80;;;;;;;;;;5022208;28;20841;-78
2023/02/21 04:25:30;;;;;;;3.23;1.43;;;;;;;;;;5020089;28;20037;-79
2023/02/21 04:27:56;;;;;;;7.27;2.27;;;;;;;;;;5021105;28;20314;-79
2023/02/21 04:30:21;;;;;;;7.97;2.35;;;;;;;;;;5022625;28;20271;-79
2023/02/21 04:32:46;;;;;;;7.60;2.00;;;;;;;;;;5017237;28;20049;-81
2023/02/21 04:35:11;;;;;;;2.95;1.67;;;;;;;;;;5015058;28;20273;-72
2023/02/21 04:37:37;;;;;;;5.43;2.53;;;;;;;;;;5019473;28;20069;-74
2023/02/21 04:40:02;;;;;;;3.03;1.80;;;;;;;;;;5031896;28;20288;-74
2023/02/21 04:42:28;;;;;;;6.57;2.10;;;;;;;;;;5017859;28;20152;-74
2023/02/21 04:44:53;;;;;;;4.35;1.95;;;;;;;;;;5021883;28;20124;-73
2023/02/21 04:47:19;;;;;;;4.75;2.17;;;;;;;;;;5017126;28;20069;-73
2023/02/21 04:49:50;;;;;;;5.20;2.10;;;;;;;;;;5021380;28;20590;-72
2023/02/21 04:52:15;;;;;;;5.80;2.65;;;;;;;;;;5019934;28;20809;-73
2023/02/21 04:54:40;;;;;;;4.75;2.08;;;;;;;;;;5023066;28;20025;-70
2023/02/21 04:57:05;;;;;;;3.13;2.00;;;;;;;;;;5021416;28;20455;-78
2023/02/21 04:59:31;;;;;;;5.27;1.93;;;;;;;;;;5023839;28;20670;-76
2023/02/21 05:01:56;;;;;;;4.17;1.73;;;;;;;;;;5024045;28;20755;-77
2023/02/21 05:04:21;;;;;;;7.50;2.75;;;;;;;;;;5020437;28;20319;-74
2023/02/21 05:06:46;;;;;;;6.97;3.07;;;;;;;;;;5023901;28;20079;-78
2023/02/21 05:09:12;;;;;;;5.25;2.40;;;;;;;;;;5021740;28;20366;-75
2023/02/21 05:11:37;;;;;;;7.00;1.90;;;;;;;;;;5027954;28;20019;-73
2023/02/21 05:14:02;;;;;;;3.73;1.70;;;;;;;;;;5024985;28;20036;-78
2023/02/21 05:16:27;;;;;;;4.65;1.88;;;;;;;;;;5020140;28;20790;-76
2023/02/21 05:18:53;;;;;;;3.85;1.90;;;;;;;;;;5020872;28;20104;-76
2023/02/21 05:21:18;;;;;;;5.13;2.28;;;;;;;;;;5019532;28;20029;-80
2023/02/21 05:23:54;;;;;;;3.80;2.13;;;;;;;;;;5019553;28;20049;-76
2023/02/21 05:26:20;;;;;;;3.75;1.83;;;;;;;;;;5022686;28;20179;-76
2023/02/21 05:28:45;;;;;;;4.32;2.42;;;;;;;;;;5023837;28;20108;-75
2023/02/21 05:31:10;;;;;;;4.38;2.20;;;;;;;;;;5023026;28;20025;-70
2023/02/21 05:33:36;;;;;;;7.57;1.93;;;;;;;;;;5023798;28;20621;-80
2023/02/21 05:36:01;;;;;;;5.00;2.07;;;;;;;;;;5026946;28;20770;-79
2023/02/21 05:38:26;;;;;;;3.77;2.17;;;;;;;;;;5031345;28;20918;-78
2023/02/21 05:40:52;;;;;;;5.30;2.17;;;;;;;;;;5029514;28;20687;-79
2023/02/21 05:43:17;;;;;;;6.32;2.35;;;;;;;;;;5026419;28;20056;-79
2023/02/21 05:45:42;;;;;;;5.95;2.20;;;;;;;;;;5034851;28;20091;-80
2023/02/21 05:48:08;;;;;;;10.10;2.42;;;;;;;;;;5025858;28;20025;-69
2023/02/21 05:50:33;;;;;;;7.25;2.40;;;;;;;;;;5022823;28;20164;-77
2023/02/21 05:52:59;;;;;;;4.53;2.10;;;;;;;;;;5031054;28;20181;-74
2023/02/21 05:55:24;;;;;;;4.22;1.98;;;;;;;;;;5026989;28;20284;-75
2023/02/21 05:57:49;;;;;;;5.90;2.00;;;;;;;;;;5030096;28;20026;-75
2023/02/21 06:00:16;;;;;;;5.20;2.00;;;;;;;;;;5025947;28;20091;-75
2023/02/21 06:02:41;;;;;;;5.63;1.52;;;;;;;;;;5027835;28;20303;-74
2023/02/21 06:05:06;;;;;;;5.53;2.13;;;;;;;;;;5027154;28;20321;-75
2023/02/21 06:07:32;;;;;;;3.47;1.80;;;;;;;;;;5028552;28;20330;-68
2023/02/21 06:09:57;;;;;;;5.55;2.60;;;;;;;;;;5029920;28;20104;-76
2023/02/21 06:12:22;;;;;;;5.18;2.53;;;;;;;;;;5026045;28;20029;-74
2023/02/21 06:14:47;;;;;;;6.85;2.45;;;;;;;;;;5028692;28;20433;-74
2023/02/21 06:17:12;;;;;;;4.35;2.25;;;;;;;;;;5037947;28;20028;-74
2023/02/21 06:19:38;;;;;;;3.23;2.40;;;;;;;;;;5024339;28;20305;-74
2023/02/21 06:22:03;;;;;;;6.67;2.03;;;;;;;;;;5030614;28;20295;-74
2023/02/21 06:24:28;;;;;;;5.68;2.08;;;;;;;;;;5028990;28;20323;-70
2023/02/21 06:26:53;;;;;;;13.65;2.38;;;;;;;;;;5031400;28;20479;-77
2023/02/21 06:29:19;;;;;;;9.00;2.83;;;;;;;;;;5021721;28;20013;-68
2023/02/21 06:31:44;;;;;;;6.73;2.53;;;;;;;;;;5027635;28;20271;-67
2023/02/21 06:34:09;;;;;;;9.03;2.97;;;;;;;;;;5026182;28;20288;-68
2023/02/21 06:36:34;;;;;;;6.60;2.58;;;;;;;;;;5032457;28;20811;-68
2023/02/21 06:39:00;;;;;;;5.67;2.20;;;;;;;;;;5023979;28;20048;-69
2023/02/21 06:41:27;;;;;;;4.07;2.03;;;;;;;;;;5023675;28;20308;-67
2023/02/21 06:43:53;;;;;;;9.00;2.30;;;;;;;;;;5022941;28;20312;-79
2023/02/21 06:46:19;;;;;;;6.45;2.40;;;;;;;;;;5022454;28;20025;-68
2023/02/21 06:48:45;;;;;;;5.38;2.28;;;;;;;;;;5022043;28;20037;-69
2023/02/21 06:51:13;;;;;;;7.63;2.40;;;;;;;;;;5024189;28;20033;-70
2023/02/21 06:53:38;;;;;;;5.15;2.13;;;;;;;;;;5022854;28;20029;-69
2023/02/21 06:56:04;;;;;;;5.50;2.40;;;;;;;;;;5010117;28;20492;-68
2023/02/21 06:58:29;;;;;;;9.15;2.67;;;;;;;;;;5019862;28;20024;-71
2023/02/21 07:00:54;;;;;;;7.67;2.50;;;;;;;;;;5017676;28;20052;-70
2023/02/21 07:03:19;;;;;;;10.13;2.58;;;;;;;;;;5018146;28;20794;-68
2023/02/21 07:05:45;;;;;;;4.35;2.42;;;;;;;;;;5015053;28;20048;-69
2023/02/21 07:08:10;;;;;;;7.15;2.90;;;;;;;;;;5020273;28;20064;-68
2023/02/21 07:10:35;;;;;;;6.03;2.33;;;;;;;;;;5018635;28;20524;-70
2023/02/21 07:13:00;;;;;;;6.90;2.10;;;;;;;;;;5020566;28;20271;-69
2023/02/21 07:15:26;;;;;;;6.22;2.28;;;;;;;;;;5019328;28;20617;-69
2023/02/21 07:17:51;;;;;;;5.03;2.58;;;;;;;;;;5016003;28;20167;-70
2023/02/21 07:20:16;;;;;;;5.93;2.95;;;;;;;;;;5030237;28;20232;-66
2023/02/21 07:22:41;;;;;;;10.90;2.90;;;;;;;;;;5030419;28;20021;-70
2023/02/21 07:25:07;;;;;;;7.38;2.85;;;;;;;;;;5026513;28;20034;-67
2023/02/21 07:27:32;;;;;;;12.63;3.70;;;;;;;;;;5024724;28;20063;-67
2023/02/21 07:29:57;;;;;;;5.38;2.63;;;;;;;;;;5025951;28;20289;-69
2023/02/21 07:32:22;;;;;;;8.10;2.77;;;;;;;;;;5020121;28;20025;-69
2023/02/21 07:34:47;;;;;;;6.50;3.22;;;;;;;;;;5021414;28;20276;-71
2023/02/21 07:37:13;;;;;;;8.10;2.77;;;;;;;;;;5024327;28;20097;-69
2023/02/21 07:39:39;;;;;;;9.85;2.88;;;;;;;;;;5025607;28;20296;-66
2023/02/21 07:42:06;;;;;;;7.63;3.70;;;;;;;;;;5023159;28;20453;-75
2023/02/21 07:44:32;;;;;;;8.45;3.00;;;;;;;;;;5027309;28;20049;-74
2023/02/21 07:46:57;;;;;;;8.00;2.88;;;;;;;;;;5022729;28;20032;-71
2023/02/21 07:49:22;;;;;;;7.60;2.67;;;;;;;;;;5025408;28;20341;-75
2023/02/21 07:51:47;;;;;;;9.30;3.90;;;;;;;;;;5026373;28;20367;-72
2023/02/21 07:54:14;;;;;;;9.40;2.85;;;;;;;;;;5032838;28;20433;-72
2023/02/21 07:56:46;;;;;;;7.65;3.17;;;;;;;;;;5023307;28;20063;-69
2023/02/21 07:59:11;;;;;;;8.68;3.35;;;;;;;;;;5023500;28;20036;-65
2023/02/21 08:01:36;;;;;;;11.43;3.97;;;;;;;;;;5021761;28;20462;-66
2023/02/21 08:04:01;;;;;;;9.45;3.58;;;;;;;;;;5021115;28;20290;-67
2023/02/21 08:06:27;;;;;;;8.63;3.10;;;;;;;;;;5019166;28;20033;-68
2023/02/21 08:08:52;;;;;;;10.25;3.50;;;;;;;;;;5023491;28;20469;-68
2023/02/21 08:11:17;;;;;;;8.52;2.80;;;;;;;;;;5024416;28;20464;-68
2023/02/21 08:13:42;;;;;;;9.57;3.30;;;;;;;;;;5024501;28;20063;-68
2023/02/21 08:16:07;;;;;;;7.27;2.73;;;;;;;;;;5024495;28;20276;-69
2023/02/21 08:18:33;;;;;;;12.73;3.17;;;;;;;;;;5018859;28;20343;-72
2023/02/21 08:20:58;;;;;;;6.03;2.90;;;;;;;;;;5017332;28;20025;-73
2023/02/21 08:23:23;;;;;;;7.73;3.00;;;;;;;;;;5022497;28;20710;-72
2023/02/21 08:25:48;;;;;;;8.82;3.20;;;;;;;;;;5034816;28;20375;-72
2023/02/21 08:28:14;;;;;;;6.72;3.20;;;;;;;;;;5014674;28;20397;-72
2023/02/21 08:30:39;;;;;;;7.07;2.95;;;;;;;;;;5030915;28;20022;-72
2023/02/21 08:33:05;;;;;;;8.07;3.10;;;;;;;;;;5028959;28;20476;-74
2023/02/21 08:35:30;;;;;;;9.38;3.05;;;;;;;;;;5026825;28;20287;-68
2023/02/21 08:37:55;;;;;;;5.10;3.08;;;;;;;;;;5025416;28;20021;-69
2023/02/21 08:40:21;;;;;;;10.88;3.75;;;;;;;;;;5018617;28;20529;-69
2023/02/21 08:42:50;;;;;;;12.85;5.55;;;;;;;;;;5019432;28;20041;-69
2023/02/21 08:45:16;;;;;;;13.32;4.57;;;;;;;;;;5024431;28;20055;-68
2023/02/21 08:47:41;;;;;;;8.98;3.15;;;;;;;;;;5024969;28;20018;-69
2023/02/21 08:50:06;;;;;;;11.73;4.10;;;;;;;;;;5022584;28;20108;-68
2023/02/21 08:52:32;;;;;;;8.38;2.88;;;;;;;;;;5026075;28;20033;-69
2023/02/21 08:54:57;;;;;;;9.00;2.80;;;;;;;;;;5020458;28;20535;-70
2023/02/21 08:57:22;;;;;;;8.68;4.03;;;;;;;;;;5034164;28;20033;-71
2023/02/21 08:59:48;;;;;;;5.87;3.27;;;;;;;;;;5025216;28;20104;-70
2023/02/21 09:02:16;;;;;;;8.35;3.65;;;;;;;;;;5023713;28;20611;-70
2023/02/21 09:04:42;;;;;;;11.07;3.55;;;;;;;;;;5023016;28;20389;-71
2023/02/21 09:07:07;;;;;;;12.00;4.10;;;;;;;;;;5020872;28;20026;-70
2023/02/21 09:09:32;;;;;;;15.23;6.93;;;;;;;;;;5020329;28;20085;-66
2023/02/21 09:11:58;;;;;;;10.17;4.73;;;;;;;;;;5022801;28;20636;-69
2023/02/21 09:14:23;;;;;;;17.13;4.73;;;;;;;;;;5023617;28;20775;-75
2023/02/21 09:16:48;;;;;;;9.17;3.83;;;;;;;;;;5031420;28;20790;-75
2023/02/21 09:19:13;;;;;;;14.43;4.97;;;;;;;;;;5025188;28;20678;-73
2023/02/21 09:21:44;;;;;;;9.43;4.50;;;;;;;;;;5021856;28;20773;-74
2023/02/21 09:24:10;;;;;;;12.30;3.95;;;;;;;;;;5027428;28;20284;-73
2023/02/21 09:26:35;;;;;;;12.82;4.72;;;;;;;;;;5026436;28;20028;-71
2023/02/21 09:29:00;;;;;;;16.58;5.93;;;;;;;;;;5034942;28;20071;-69
2023/02/21 09:31:26;;;;;;;11.43;5.18;;;;;;;;;;5030769;28;20064;-72
2023/02/21 09:33:51;;;;;;;11.10;5.00;;;;;;;;;;5022089;28;20021;-70
2023/02/21 09:36:22;;;;;;;12.17;5.17;;;;;;;;;;5026515;28;20430;-70
2023/02/21 09:38:47;;;;;;;13.20;5.65;;;;;;;;;;5026669;28;20276;-70
2023/02/21 09:41:13;;;;;;;12.40;4.72;;;;;;;;;;5031142;28;20062;-71
2023/02/21 09:43:40;;;;;;;13.52;5.35;;;;;;;;;;5031795;28;20393;-72
2023/02/21 09:46:11;;;;;;;12.77;5.50;;;;;;;;;;5027969;28;20106;-69
2023/02/21 09:48:37;;;;;;;12.68;4.78;;;;;;;;;;5020866;28;20434;-74
2023/02/21 09:51:04;;;;;;;11.75;4.90;;;;;;;;;;5022648;28;20022;-73
2023/02/21 09:53:35;;;;;;;9.82;4.63;;;;;;;;;;5025662;28;20033;-73
2023/02/21 09:56:04;;;;;;;9.80;4.88;;;;;;;;;;5021271;28;20018;-71
2023/02/21 09:58:29;;;;;;;;;;;;;;;;;;5023647;28;20469;-72
2023/02/21 10:01:02;;;;;;;9.38;4.43;;;;;;;;;;5027826;28;20215;-74
2023/02/21 10:03:33;;;;;;;10.85;5.05;;;;;;;;;;5023283;28;20057;-75
2023/02/21 10:05:58;;;;;;;10.55;4.72;;;;;;;;;;5024990;28;20480;-73
2023/02/21 10:08:39;;;;;;;10.50;5.13;;;;;;;;;;5022310;28;20044;-71
2023/02/21 10:11:22;;;;;;;10.75;4.60;;;;;;;;;;5019450;28;20376;-70
2023/02/21 10:14:14;;;;;;;10.07;4.93;;;;;;;;;;5026448;28;20028;-68
2023/02/21 10:16:46;;;;;;;11.57;4.47;;;;;;;;;;5023407;28;20041;-68
2023/02/21 10:19:25;;;;;;;9.55;4.18;;;;;;;;;;5025461;28;20474;-70
2023/02/21 10:21:51;;;;;;;10.23;4.10;;;;;;;;;;5022922;28;20061;-69
2023/02/21 10:24:21;;;;;;;10.90;4.43;;;;;;;;;;5028047;28;20567;-68
2023/02/21 10:26:49;;;;;;;10.38;4.40;;;;;;;;;;5028736;28;20021;-70
2023/02/21 10:29:23;;;;;;;8.55;4.28;;;;;;;;;;5026859;28;20128;-69
2023/02/21 10:31:51;;;;;;;9.25;4.93;;;;;;;;;;5025882;28;20060;-69
2023/02/21 10:34:27;;;;;;;10.80;4.55;;;;;;;;;;5025064;28;20493;-69
2023/02/21 10:36:53;;;;;;;16.35;4.50;;;;;;;;;;5014271;28;20026;-68
2023/02/21 10:39:31;;;;;;;9.35;4.07;;;;;;;;;;5035919;28;20025;-68
2023/02/21 10:41:57;;;;;;;15.05;4.55;;;;;;;;;;5031283;28;20110;-68
2023/02/21 10:44:29;;;;;;;9.05;4.25;;;;;;;;;;5030815;28;20057;-73
2023/02/21 10:46:59;;;;;;;9.90;4.15;;;;;;;;;;5031217;28;20087;-69
2023/02/21 10:49:28;;;;;;;12.82;4.70;;;;;;;;;;5030130;28;20473;-68
2023/02/21 10:52:04;;;;;;;9.57;3.72;;;;;;;;;;5031340;28;20104;-69
2023/02/21 10:54:29;;;;;;;11.80;3.90;;;;;;;;;;5031047;28;20472;-68
2023/02/21 10:56:55;;;;;;;8.30;4.00;;;;;;;;;;5031228;28;20028;-68
2023/02/21 10:59:20;;;;;;;10.48;3.70;;;;;;;;;;5030925;28;20268;-68
2023/02/21 11:01:46;;;;;;;8.70;3.92;;;;;;;;;;5030305;28;20024;-68
2023/02/21 11:04:20;;;;;;;9.05;3.53;;;;;;;;;;5028309;28;20052;-72
2023/02/21 11:06:49;;;;;;;10.98;3.90;;;;;;;;;;5037495;28;20025;-71
2023/02/21 11:09:33;;;;;;;9.32;4.25;;;;;;;;;;5030709;28;20050;-74
2023/02/21 11:12:18;;;;;;;9.45;3.45;;;;;;;;;;5030985;28;20030;-72
2023/02/21 11:14:46;;;;;;;6.80;3.63;;;;;;;;;;5030623;28;20022;-72
2023/02/21 11:17:22;;;;;;;11.90;3.63;;;;;;;;;;5030318;28;20484;-73
2023/02/21 11:19:59;;;;;;;9.30;3.60;;;;;;;;;;5014838;28;20234;-66
2023/02/21 11:22:24;;;;;;;10.85;3.38;;;;;;;;;;5029530;28;20469;-67
2023/02/21 11:24:56;;;;;;;7.60;3.70;;;;;;;;;;5029704;28;20045;-67
2023/02/21 11:27:22;;;;;;;7.18;3.63;;;;;;;;;;5027943;28;20267;-67
2023/02/21 11:29:48;;;;;;;6.65;3.40;;;;;;;;;;5030280;28;20037;-68
2023/02/21 11:32:28;;;;;;;6.53;2.97;;;;;;;;;;5023872;28;20074;-67
2023/02/21 11:35:01;;;;;;;9.65;3.20;;;;;;;;;;5029272;28;20037;-66
2023/02/21 11:37:27;;;;;;;7.00;3.40;;;;;;;;;;5040513;28;20032;-73
2023/02/21 11:39:53;;;;;;;7.40;3.83;;;;;;;;;;5035606;28;20115;-73
2023/02/21 11:42:24;;;;;;;6.32;3.10;;;;;;;;;;5030201;28;20111;-69
2023/02/21 11:45:00;;;;;;;6.82;3.70;;;;;;;;;;5030108;28;20041;-70
2023/02/21 11:47:33;;;;;;;8.93;3.92;;;;;;;;;;5030136;28;20076;-70
2023/02/21 11:50:04;;;;;;;6.28;3.50;;;;;;;;;;5029190;28;20053;-69
2023/02/21 11:52:48;;;;;;;8.30;3.53;;;;;;;;;;5030080;28;20794;-69
2023/02/21 11:55:15;;;;;;;12.13;4.22;;;;;;;;;;5033391;28;20028;-69
2023/02/21 11:58:01;;;;;;;8.45;3.58;;;;;;;;;;5030284;28;20019;-68
2023/02/21 12:00:32;;;;;;;10.15;3.13;;;;;;;;;;5029954;28;20036;-68
2023/02/21 12:03:27;;;;;;;8.82;3.78;;;;;;;;;;5030092;28;20036;-68
2023/02/21 12:06:12;;;;;;;6.68;3.55;;;;;;;;;;5013135;28;20122;-68
2023/02/21 12:08:47;;;;;;;9.00;5.03;;;;;;;;;;5032653;28;20032;-69
2023/02/21 12:11:21;;;;;;;7.65;2.88;;;;;;;;;;5034561;28;20142;-68
2023/02/21 12:13:52;;;;;;;6.00;3.03;;;;;;;;;;5028114;28;20021;-67
2023/02/21 12:16:20;;;;;;;8.02;3.85;;;;;;;;;;5029672;28;20515;-70
2023/02/21 12:19:04;;;;;;;8.15;3.50;;;;;;;;;;5027338;28;20029;-70
2023/02/21 12:21:44;;;;;;;5.70;2.50;;;;;;;;;;5012003;28;20049;-71
2023/02/21 12:24:28;;;;;;;6.80;3.33;;;;;;;;;;5031098;28;20552;-71
2023/02/21 12:27:11;;;;;;;6.50;2.85;;;;;;;;;;5029560;28;20022;-69
2023/02/21 12:29:51;;;;;;;7.95;2.90;;;;;;;;;;5030008;28;20412;-69
2023/02/21 12:32:22;;;;;;;5.95;2.75;;;;;;;;;;5025346;28;20021;-69
2023/02/21 12:34:50;;;;;;;7.82;2.95;;;;;;;;;;5028352;28;20027;-74
2023/02/21 12:37:18;;;;;;;4.30;2.55;;;;;;;;;;5031105;28;20829;-73
2023/02/21 12:40:03;;;;;;;5.72;2.38;;;;;;;;;;5035702;28;20395;-72
2023/02/21 12:42:53;;;;;;;6.85;2.47;;;;;;;;;;5023073;28;20061;-72
2023/02/21 12:45:18;;;;;;;;;;;;;;;;;;5029282;28;20041;-72
2023/02/21 12:47:55;;;;;;;8.38;2.55;;;;;;;;;;5028687;28;20077;-73
2023/02/21 12:50:23;;;;;;;5.53;2.28;;;;;;;;;;5027477;28;20021;-67
2023/02/21 12:53:00;;;;;;;6.57;2.22;;;;;;;;;;5028153;28;20013;-73
2023/02/21 12:55:28;;;;;;;3.58;2.17;;;;;;;;;;5027712;28;20037;-68
2023/02/21 12:58:02;;;;;;;5.30;2.22;;;;;;;;;;5028119;28;20523;-68
2023/02/21 13:00:30;;;;;;;5.05;2.03;;;;;;;;;;5028918;28;20071;-74
2023/02/21 13:03:17;;;;;;;4.20;1.70;;;;;;;;;;5029134;28;20037;-74
2023/02/21 13:05:47;;;;;;;3.38;1.77;;;;;;;;;;5028732;28;20055;-77
2023/02/21 13:08:24;;;;;;;3.10;1.65;;;;;;;;;;5028873;28;20032;-75
2023/02/21 13:11:05;;;;;;;4.80;2.08;;;;;;;;;;5026557;28;20036;-77
2023/02/21 13:13:32;;;;;;;5.07;1.80;;;;;;;;;;5026227;28;20022;-76
2023/02/21 13:15:59;;;;;;;3.25;1.67;;;;;;;;;;5030391;28;20209;-75
2023/02/21 13:18:24;;;;;;;3.42;1.85;;;;;;;;;;5025217;28;20105;-76
2023/02/21 13:20:55;;;;;;;3.27;1.50;;;;;;;;;;5027780;28;20119;-72
2023/02/21 13:23:39;;;;;;;7.85;2.28;;;;;;;;;;5028713;28;20018;-67
2023/02/21 13:26:17;;;;;;;4.63;1.75;;;;;;;;;;5020382;28;20037;-70
2023/02/21 13:28:44;;;;;;;8.27;2.10;;;;;;;;;;5028495;28;20017;-70
2023/02/21 13:31:37;;;;;;;2.38;1.35;;;;;;;;;;5031344;28;20018;-70
2023/02/21 13:34:04;;;;;;;4.75;1.50;;;;;;;;;;5027488;28;20050;-70
2023/02/21 13:36:31;;;;;;;4.43;1.92;;;;;;;;;;5027729;28;20147;-68
2023/02/21 13:39:03;;;;;;;5.07;1.75;;;;;;;;;;5039036;28;20032;-70
2023/02/21 13:41:32;;;;;;;4.13;1.60;;;;;;;;;;5028044;28;20021;-71
2023/02/21 13:43:58;;;;;;;3.95;1.50;;;;;;;;;;5027596;28;20124;-68
2023/02/21 13:46:29;;;;;;;3.60;1.80;;;;;;;;;;5037216;28;20036;-76
2023/02/21 13:49:13;;;;;;;3.15;1.58;;;;;;;;;;5027079;28;20021;-67
2023/02/21 13:51:49;;;;;;;3.83;1.98;;;;;;;;;;5028916;28;20037;-68
2023/02/21 13:54:20;;;;;;;3.70;1.58;;;;;;;;;;5028678;28;20527;-68
2023/02/21 13:56:47;;;;;;;3.38;1.50;;;;;;;;;;5028628;28;20075;-69
2023/02/21 13:59:21;;;;;;;4.60;1.52;;;;;;;;;;5030927;28;20018;-70
2023/02/21 14:01:48;;;;;;;2.38;1.17;;;;;;;;;;5031963;28;20044;-71
2023/02/21 14:04:31;;;;;;;3.42;1.17;;;;;;;;;;5031802;28;20158;-76
2023/02/21 14:06:57;;;;;;;4.10;1.42;;;;;;;;;;5023365;28;20055;-75
2023/02/21 14:09:22;;;;;;;4.75;1.17;;;;;;;;;;5031282;28;20108;-71
2023/02/21 14:11:49;;;;;;;2.25;1.35;;;;;;;;;;5031076;28;20018;-72
2023/02/21 14:14:38;;;;;;;3.13;1.15;;;;;;;;;;5031050;28;20108;-72
2023/02/21 14:17:08;;;;;;;6.80;2.58;;;;;;;;;;5035356;28;20037;-72
2023/02/21 14:19:34;;;;;;;2.58;1.20;;;;;;;;;;5025678;28;20032;-72
2023/02/21 14:22:08;;;;;;;1.33;0.82;;;;;;;;;;5015615;28;20026;-72
2023/02/21 14:24:37;;;;;;;2.15;1.30;;;;;;;;;;5029087;28;20029;-71
2023/02/21 14:27:08;;;;;;;3.30;1.30;;;;;;;;;;5030430;28;20014;-72
2023/02/21 14:29:52;;;;;;;3.90;1.40;;;;;;;;;;5032599;28;20034;-69
2023/02/21 14:32:31;;;;;;;3.80;1.58;;;;;;;;;;5018366;28;20525;-72
2023/02/21 14:34:57;;;;;;;3.83;1.30;;;;;;;;;;5031657;28;20021;-72
2023/02/21 14:37:29;;;;;;;5.13;1.30;;;;;;;;;;5033906;28;20031;-71
2023/02/21 14:39:56;;;;;;;4.60;1.30;;;;;;;;;;5038473;28;20025;-70
2023/02/21 14:42:22;;;;;;;1.42;1.25;;;;;;;;;;5031150;28;20029;-72
2023/02/21 14:45:06;;;;;;;3.47;1.23;;;;;;;;;;5028696;28;20061;-72
2023/02/21 14:47:31;;;;;;;0.95;0.90;;;;;;;;;;5030151;28;20017;-73
2023/02/21 14:50:04;;;;;;;2.20;1.37;;;;;;;;;;5039590;28;20196;-71
2023/02/21 14:52:44;;;;;;;1.67;1.00;;;;;;;;;;5031387;28;20789;-73
2023/02/21 14:55:18;;;;;;;2.88;1.42;;;;;;;;;;5031183;28;20037;-73
2023/02/21 14:58:02;;;;;;;2.15;1.30;;;;;;;;;;5030160;28;20016;-71
2023/02/21 15:00:43;;;;;;;5.68;1.92;;;;;;;;;;5028692;28;20030;-75
2023/02/21 15:03:20;;;;;;;3.97;1.80;;;;;;;;;;5029356;28;20481;-70
2023/02/21 15:05:48;;;;;;;6.18;1.70;;;;;;;;;;5030185;28;20038;-72
2023/02/21 15:08:17;;;;;;;2.80;1.45;;;;;;;;;;5030109;28;20520;-71
2023/02/21 15:10:44;;;;;;;3.92;1.75;;;;;;;;;;5024299;28;20025;-72
2023/02/21 15:13:20;;;;;;;5.07;1.95;;;;;;;;;;5030390;28;20025;-70
2023/02/21 15:15:46;;;;;;;4.72;1.58;;;;;;;;;;5029875;28;20024;-72
2023/02/21 15:18:25;;;;;;;4.30;1.83;;;;;;;;;;5027818;28;20101;-74
2023/02/21 15:21:08;;;;;;;4.38;1.50;;;;;;;;;;5026457;28;20283;-74
2023/02/21 15:23:34;;;;;;;4.25;1.80;;;;;;;;;;5032392;28;20022;-75
2023/02/21 15:26:21;;;;;;;4.13;1.50;;;;;;;;;;5030649;28;20033;-74
2023/02/21 15:29:02;;;;;;;4.93;1.67;;;;;;;;;;5030199;28;20461;-74
2023/02/21 15:31:27;;;;;;;5.80;2.20;;;;;;;;;;5033080;28;20401;-75
2023/02/21 15:33:52;;;;;;;9.45;2.15;;;;;;;;;;5030392;28;20021;-75
2023/02/21 15:36:19;;;;;;;3.97;1.77;;;;;;;;;;5030608;28;20116;-71
2023/02/21 15:38:52;;;;;;;3.97;1.95;;;;;;;;;;5040848;28;20639;-76
2023/02/21 15:41:28;;;;;;;5.40;2.33;;;;;;;;;;5030262;28;20438;-77
2023/02/21 15:43:56;;;;;;;5.80;2.35;;;;;;;;;;5030109;28;20096;-77
2023/02/21 15:46:24;;;;;;;5.15;2.55;;;;;;;;;;5030315;28;20048;-76
2023/02/21 15:48:50;;;;;;;4.78;2.10;;;;;;;;;;5030268;28;20110;-79
2023/02/21 15:51:16;;;;;;;4.78;2.30;;;;;;;;;;5030280;28;20025;-76
2023/02/21 15:53:41;;;;;;;8.20;2.10;;;;;;;;;;5036153;28;20031;-77
2023/02/21 15:56:20;;;;;;;4.45;2.25;;;;;;;;;;5030411;28;20108;-71
2023/02/21 15:59:06;;;;;;;5.05;2.25;;;;;;;;;;5029605;28;20045;-73
2023/02/21 16:01:31;;;;;;;4.75;2.00;;;;;;;;;;5029608;28;20026;-72
2023/02/21 16:04:15;;;;;;;4.80;1.90;;;;;;;;;;5029804;28;20422;-73
2023/02/21 16:06:47;;;;;;;5.55;1.60;;;;;;;;;;5028714;28;20537;-71
2023/02/21 16:09:12;;;;;;;5.32;2.33;;;;;;;;;;5029747;28;20037;-72
2023/02/21 16:11:39;;;;;;;6.43;2.63;;;;;;;;;;5029621;28;20533;-73
2023/02/21 16:14:05;;;;;;;5.20;1.95;;;;;;;;;;5029614;28;20075;-71
2023/02/21 16:16:34;;;;;;;5.03;1.98;;;;;;;;;;5029468;28;20108;-68
2023/02/21 16:18:59;;;;;;;5.07;2.10;;;;;;;;;;5018712;28;20050;-69
2023/02/21 16:21:26;;;;;;;5.95;1.83;;;;;;;;;;5022622;28;20057;-68
2023/02/21 16:23:51;;;;;;;4.00;1.50;;;;;;;;;;5028595;28;20028;-69
2023/02/21 16:26:20;;;;;;;4.45;2.05;;;;;;;;;;5037969;28;20042;-68
2023/02/21 16:28:46;;;;;;;6.53;2.10;;;;;;;;;;5016819;28;20364;-72
2023/02/21 16:31:15;;;;;;;6.13;2.00;;;;;;;;;;5017039;28;20033;-71
2023/02/21 16:33:41;;;;;;;5.03;2.00;;;;;;;;;;5023625;28;20339;-74
2023/02/21 16:36:08;;;;;;;5.25;1.88;;;;;;;;;;5017930;28;20033;-68
2023/02/21 16:38:33;;;;;;;3.95;2.00;;;;;;;;;;5026093;28;20484;-68
2023/02/21 16:40:58;;;;;;;7.05;2.13;;;;;;;;;;5015371;28;20167;-67
2023/02/21 16:43:25;;;;;;;4.10;2.05;;;;;;;;;;5027753;28;20045;-68
2023/02/21 16:45:52;;;;;;;6.38;2.20;;;;;;;;;;5019316;28;20031;-68
2023/02/21 16:48:20;;;;;;;3.00;1.90;;;;;;;;;;5022476;28;20324;-67
2023/02/21 16:50:46;;;;;;;11.45;2.63;;;;;;;;;;5032491;28;20053;-68
2023/02/21 16:53:11;;;;;;;8.23;1.92;;;;;;;;;;5012039;28;20018;-71
2023/02/21 16:55:37;;;;;;;11.98;2.35;;;;;;;;;;5023172;28;20053;-70
2023/02/21 16:58:05;;;;;;;8.57;2.72;;;;;;;;;;5028149;28;20065;-70
2023/02/21 17:00:31;;;;;;;6.40;2.25;;;;;;;;;;5011143;28;20547;-72
2023/02/21 17:02:56;;;;;;;8.43;2.55;;;;;;;;;;5028152;28;20033;-70
2023/02/21 17:05:21;;;;;;;7.57;2.67;;;;;;;;;;5033662;28;20488;-71
2023/02/21 17:07:48;;;;;;;9.88;2.50;;;;;;;;;;5021980;28;20176;-70